Aviation Digital Data Service (ADDS)

Output produced by TAFs form (0156 UTC 26 June 2017)
found at http://aviationweather.gov/adds/tafs/
 
KCNM 252358Z 2600/2624 15011G19KT P6SM SCT070 BKN200 
     TEMPO 2607/2610 VRB20G30KT 2SM TSRA BKN050CB 
     FM261100 07010KT P6SM BKN100